Time;durP1;ratioP1;P1;durP2;ratioP2;P2;SDS_P1;SDS_P2;PMS_P1;PMS_P2;Temp;Humidity;BMP_temperature;BMP_pressure;BME280_temperature;BME280_humidity;BME280_pressure;Samples;Min_cycle;Max_cycle;Signal;HPM_P1;HPM_P2
2023/10/11 00:01:22;;;;;;;9.80;4.12;;;;;;;14.89;69.46;100307.72;4474322;32;33848;-82
2023/10/11 00:04:23;;;;;;;8.95;4.20;;;;;;;14.82;69.78;100303.50;4472731;32;34142;-82
2023/10/11 00:06:54;;;;;;;9.68;3.42;;;;;;;14.61;70.37;100293.50;4470252;32;34394;-81
2023/10/11 00:09:34;;;;;;;;;;;;;;;14.42;71.33;100299.03;4464834;32;34105;-83
2023/10/11 00:12:04;;;;;;;7.25;3.62;;;;;;;14.69;70.09;100288.97;4472494;32;34071;-81
2023/10/11 00:14:39;;;;;;;7.10;3.50;;;;;;;14.70;69.57;100293.31;4472702;32;32367;-81
2023/10/11 00:17:11;;;;;;;8.48;3.78;;;;;;;14.67;69.55;100290.78;4475312;32;33601;-82
2023/10/11 00:19:46;;;;;;;6.22;3.08;;;;;;;14.54;69.83;100289.28;4478052;32;33930;-82
2023/10/11 00:22:15;;;;;;;7.62;4.15;;;;;;;14.61;69.73;100283.91;4475115;32;34812;-82
2023/10/11 00:24:45;;;;;;;9.27;3.45;;;;;;;14.50;69.50;100283.25;4470526;32;34511;-82
2023/10/11 00:27:13;;;;;;;8.80;4.00;;;;;;;14.48;69.43;100285.88;4471131;32;34604;-83
2023/10/11 00:29:42;;;;;;;8.40;4.07;;;;;;;14.61;68.38;100286.53;4474877;32;33973;-83
2023/10/11 00:32:11;;;;;;;7.65;3.53;;;;;;;14.37;69.06;100290.44;4482590;32;34486;-83
2023/10/11 00:34:40;;;;;;;6.62;3.35;;;;;;;14.32;69.08;100296.66;4480176;32;33924;-83
2023/10/11 00:37:10;;;;;;;7.80;3.25;;;;;;;14.20;69.65;100301.19;4471945;32;33799;-82
2023/10/11 00:39:40;;;;;;;8.93;3.17;;;;;;;14.26;68.85;100298.50;4466378;32;33247;-82
2023/10/11 00:42:10;;;;;;;8.68;4.03;;;;;;;14.28;68.63;100290.63;4477054;32;34609;-83
2023/10/11 00:44:42;;;;;;;10.30;4.70;;;;;;;14.24;68.64;100292.44;4483239;32;33939;-83
2023/10/11 00:47:12;;;;;;;6.85;3.45;;;;;;;14.21;68.80;100289.03;4476159;32;33406;-81
2023/10/11 00:49:42;;;;;;;7.28;3.53;;;;;;;14.09;68.72;100284.91;4476709;32;34870;-83
2023/10/11 00:52:14;;;;;;;8.95;5.78;;;;;;;13.93;69.19;100286.03;4468875;32;33636;-81
2023/10/11 00:54:46;;;;;;;10.32;4.12;;;;;;;13.87;69.62;100287.03;4475622;32;34009;-83
2023/10/11 00:57:15;;;;;;;8.40;3.83;;;;;;;13.92;69.30;100284.31;4475801;32;33383;-82
2023/10/11 00:59:45;;;;;;;7.53;3.62;;;;;;;14.06;69.01;100280.59;4480525;32;34601;-81
2023/10/11 01:02:15;;;;;;;8.90;4.28;;;;;;;13.95;69.23;100282.53;4471524;32;34427;-82
2023/10/11 01:04:44;;;;;;;8.27;3.78;;;;;;;14.02;68.77;100278.06;4469575;32;34012;-81
2023/10/11 01:07:14;;;;;;;8.10;3.78;;;;;;;13.96;68.95;100273.78;4470092;32;33195;-83
2023/10/11 01:09:44;;;;;;;10.23;3.75;;;;;;;13.89;69.40;100269.56;4467854;32;33233;-82
2023/10/11 01:12:13;;;;;;;12.65;4.43;;;;;;;13.89;69.82;100266.97;4479961;32;34157;-83
2023/10/11 01:14:56;;;;;;;7.25;3.83;;;;;;;13.83;69.84;100267.09;4467114;32;32614;-84
2023/10/11 01:17:27;;;;;;;7.93;3.95;;;;;;;13.92;69.53;100269.53;4477274;32;33784;-82
2023/10/11 01:19:56;;;;;;;8.20;3.87;;;;;;;13.94;69.99;100277.31;4464946;32;34324;-83
2023/10/11 01:22:28;;;;;;;7.65;4.32;;;;;;;14.05;69.27;100275.41;4462212;32;34633;-82
2023/10/11 01:25:00;;;;;;;9.77;4.55;;;;;;;13.94;69.44;100283.44;4472539;32;33297;-83
2023/10/11 01:27:31;;;;;;;7.55;3.33;;;;;;;13.99;69.24;100289.41;4484821;32;34402;-82
2023/10/11 01:30:00;;;;;;;9.10;3.92;;;;;;;14.03;68.94;100290.22;4472447;32;33717;-82
2023/10/11 01:32:29;;;;;;;11.27;3.55;;;;;;;13.96;69.19;100292.06;4468891;32;33082;-83
2023/10/11 01:34:59;;;;;;;10.80;4.28;;;;;;;13.92;69.74;100284.31;4464791;32;33171;-82
2023/10/11 01:37:36;;;;;;;9.02;4.15;;;;;;;13.79;70.49;100288.88;4471824;32;33108;-82
2023/10/11 01:40:07;;;;;;;7.70;4.15;;;;;;;13.83;70.66;100282.75;4483933;32;33895;-84
2023/10/11 01:42:36;;;;;;;12.65;4.45;;;;;;;14.01;70.05;100282.44;4472322;32;33361;-84
2023/10/11 01:45:08;;;;;;;7.12;3.92;;;;;;;13.90;70.24;100279.12;4471184;32;33228;-82
2023/10/11 01:47:38;;;;;;;5.65;3.45;;;;;;;14.01;69.89;100277.22;4473777;32;33809;-83
2023/10/11 01:50:08;;;;;;;9.07;3.27;;;;;;;14.00;69.96;100279.84;4465395;32;34137;-82
2023/10/11 01:52:39;;;;;;;11.12;4.47;;;;;;;13.84;70.36;100284.44;4468034;32;33236;-82
2023/10/11 01:55:11;;;;;;;8.93;3.80;;;;;;;13.87;70.32;100284.41;4478329;32;33328;-82
2023/10/11 01:57:45;;;;;;;8.38;4.35;;;;;;;13.83;70.14;100294.03;4471300;32;34839;-82
2023/10/11 02:00:15;;;;;;;7.47;4.32;;;;;;;13.79;70.19;100301.91;4472784;32;33596;-82
2023/10/11 02:02:47;;;;;;;6.53;3.42;;;;;;;13.85;69.92;100288.78;4473000;32;32748;-83
2023/10/11 02:05:21;;;;;;;6.93;3.60;;;;;;;13.95;69.28;100281.66;4474261;32;33070;-82
2023/10/11 02:07:55;;;;;;;9.82;4.32;;;;;;;13.88;69.22;100283.50;4480988;32;33935;-82
2023/10/11 02:10:27;;;;;;;9.63;4.35;;;;;;;13.80;69.69;100278.44;4470482;32;34798;-83
2023/10/11 02:12:57;;;;;;;11.18;4.20;;;;;;;13.85;69.96;100278.38;4469598;32;33637;-83
2023/10/11 02:15:28;;;;;;;15.17;5.90;;;;;;;13.87;69.54;100272.22;4471895;32;32495;-82
2023/10/11 02:17:58;;;;;;;15.45;5.53;;;;;;;13.90;69.75;100278.28;4479654;32;33638;-81
2023/10/11 02:20:28;;;;;;;9.90;5.22;;;;;;;13.90;69.64;100281.75;4477402;32;34614;-81
2023/10/11 02:22:59;;;;;;;8.20;4.75;;;;;;;13.76;70.21;100286.34;4479167;32;34436;-84
2023/10/11 02:25:29;;;;;;;17.48;5.95;;;;;;;13.87;70.01;100284.41;4467613;32;33456;-83
2023/10/11 02:27:58;;;;;;;10.00;4.32;;;;;;;13.93;69.88;100281.69;4478665;32;33543;-83
2023/10/11 02:30:27;;;;;;;11.38;5.32;;;;;;;13.82;70.36;100291.44;4470305;32;33555;-81
2023/10/11 02:32:58;;;;;;;12.82;4.62;;;;;;;14.00;69.30;100293.72;4463668;32;34567;-83
2023/10/11 02:35:27;;;;;;;;;;;;;;;14.08;69.22;100293.59;4471652;32;33493;-81
2023/10/11 02:37:59;;;;;;;14.87;4.85;;;;;;;13.88;70.17;100289.59;4476801;32;34051;-82
2023/10/11 02:40:30;;;;;;;8.93;4.65;;;;;;;13.97;70.07;100285.13;4475494;32;34851;-82
2023/10/11 02:43:03;;;;;;;9.77;5.55;;;;;;;13.85;70.40;100291.41;4472928;32;34579;-82
2023/10/11 02:45:33;;;;;;;12.37;4.00;;;;;;;14.00;70.05;100287.66;4471018;32;32769;-82
2023/10/11 02:48:10;;;;;;;12.55;5.25;;;;;;;13.78;70.75;100285.41;4473354;32;34648;-82
2023/10/11 02:50:43;;;;;;;12.23;4.72;;;;;;;13.90;70.56;100278.28;4468329;32;34398;-82
2023/10/11 02:53:22;;;;;;;8.63;4.32;;;;;;;13.83;70.89;100272.31;4467714;32;33804;-83
2023/10/11 02:55:57;;;;;;;8.38;4.32;;;;;;;13.49;72.11;100266.78;4472561;32;33788;-82
2023/10/11 02:58:27;;;;;;;11.90;5.12;;;;;;;13.82;70.82;100262.75;4479653;32;34562;-82
2023/10/11 03:00:59;;;;;;;11.12;4.62;;;;;;;13.85;70.41;100271.37;4464038;32;34585;-83
2023/10/11 03:03:49;;;;;;;10.43;5.82;;;;;;;13.73;70.79;100270.75;4463481;32;34543;-83
2023/10/11 03:06:19;;;;;;;13.00;5.33;;;;;;;13.88;70.14;100267.87;4469868;32;32703;-82
2023/10/11 03:08:51;;;;;;;12.63;4.95;;;;;;;13.88;69.89;100273.94;4463620;32;33816;-83
2023/10/11 03:11:20;;;;;;;14.05;5.03;;;;;;;13.80;70.01;100280.19;4466404;32;34680;-82
2023/10/11 03:13:49;;;;;;;11.18;4.85;;;;;;;13.73;69.94;100281.19;4479297;32;34555;-82
2023/10/11 03:16:18;;;;;;;8.07;4.53;;;;;;;13.80;69.74;100285.41;4479002;32;33429;-83
2023/10/11 03:18:47;;;;;;;9.55;3.97;;;;;;;13.66;70.34;100280.41;4485033;32;34407;-83
2023/10/11 03:21:17;;;;;;;11.57;4.57;;;;;;;13.78;70.09;100280.19;4479407;32;34897;-81
2023/10/11 03:23:47;;;;;;;15.88;4.87;;;;;;;13.59;71.16;100270.97;4479095;32;34451;-82
2023/10/11 03:26:22;;;;;;;9.68;4.10;;;;;;;13.81;69.82;100282.75;4468751;32;32567;-82
2023/10/11 03:28:57;;;;;;;14.85;4.72;;;;;;;13.83;69.57;100282.75;4462617;32;33678;-81
2023/10/11 03:31:28;;;;;;;13.32;4.90;;;;;;;13.77;69.62;100285.44;4470138;32;34002;-82
2023/10/11 03:33:57;;;;;;;11.43;4.62;;;;;;;13.70;70.49;100287.31;4468583;32;33422;-82
2023/10/11 03:36:34;;;;;;;9.57;4.30;;;;;;;13.75;70.05;100288.09;4474477;32;34148;-82
2023/10/11 03:39:09;;;;;;;11.00;4.55;;;;;;;13.90;69.80;100286.97;4464739;32;33902;-82
2023/10/11 03:41:45;;;;;;;11.40;4.50;;;;;;;13.77;70.35;100285.44;4465323;32;32105;-82
2023/10/11 03:44:17;;;;;;;10.40;4.22;;;;;;;13.95;70.04;100289.50;4475662;32;34172;-81
2023/10/11 03:46:47;;;;;;;10.15;4.20;;;;;;;13.77;71.18;100283.72;4473037;32;34293;-81
2023/10/11 03:52:00;;;;;;;11.27;3.87;;;;;;;13.76;71.49;100275.91;4466465;32;35196;-82
2023/10/11 03:54:30;;;;;;;8.35;3.37;;;;;;;13.90;71.15;100291.31;4462888;32;33800;-83
2023/10/11 03:57:04;;;;;;;7.25;4.12;;;;;;;13.97;70.90;100287.72;4471831;32;34056;-83
2023/10/11 03:59:38;;;;;;;10.43;4.70;;;;;;;14.09;70.54;100285.75;4463380;32;33856;-81
2023/10/11 04:02:10;;;;;;;6.10;3.80;;;;;;;13.92;71.42;100282.59;4474231;32;32886;-82
2023/10/11 04:04:42;;;;;;;8.85;4.45;;;;;;;13.78;72.41;100288.03;4468439;32;34417;-82
2023/10/11 04:07:13;;;;;;;7.53;3.80;;;;;;;13.99;71.54;100283.31;4462572;32;32993;-82
2023/10/11 04:09:44;;;;;;;15.25;4.40;;;;;;;14.01;71.62;100281.53;4461581;32;33558;-81
2023/10/11 04:12:14;;;;;;;9.95;4.05;;;;;;;14.10;71.07;100289.22;4463682;32;33929;-82
2023/10/11 04:14:44;;;;;;;8.52;4.22;;;;;;;14.13;71.00;100291.75;4462944;32;33814;-82
2023/10/11 04:17:25;;;;;;;8.93;3.53;;;;;;;14.06;70.84;100290.16;4464269;32;33442;-81
2023/10/11 04:20:16;;;;;;;15.55;6.68;;;;;;;14.06;71.25;100285.81;4475253;32;34000;-81
2023/10/11 04:22:57;;;;;;;10.57;4.47;;;;;;;13.94;71.57;100279.94;4484873;32;34739;-82
2023/10/11 04:25:26;;;;;;;10.25;4.47;;;;;;;14.03;71.10;100277.16;4478059;32;33763;-82
2023/10/11 04:27:57;;;;;;;11.35;3.92;;;;;;;13.79;71.81;100288.88;4469393;32;33499;-83
2023/10/11 04:30:27;;;;;;;9.32;4.93;;;;;;;13.76;72.14;100291.56;4464290;32;33879;-82
2023/10/11 04:33:01;;;;;;;8.93;3.97;;;;;;;13.79;71.96;100296.72;4478166;32;33956;-81
2023/10/11 04:35:37;;;;;;;8.05;4.22;;;;;;;13.92;71.76;100287.81;4476541;32;34766;-82
2023/10/11 04:38:10;;;;;;;7.20;3.90;;;;;;;14.09;70.93;100301.41;4483137;32;34211;-82
2023/10/11 04:40:41;;;;;;;8.63;4.05;;;;;;;14.19;70.43;100299.50;4472458;32;34438;-81
2023/10/11 04:43:24;;;;;;;6.70;3.72;;;;;;;14.21;70.60;100296.88;4467139;32;33945;-82
2023/10/11 04:45:55;;;;;;;9.98;4.05;;;;;;;14.22;70.50;100291.59;4471583;32;33502;-83
2023/10/11 04:48:36;;;;;;;10.25;4.62;;;;;;;14.16;71.18;100302.16;4469064;32;33358;-82
2023/10/11 04:51:21;;;;;;;11.10;3.62;;;;;;;14.18;71.46;100300.38;4466682;32;34211;-82
2023/10/11 04:53:58;;;;;;;11.32;4.43;;;;;;;13.96;72.68;100297.28;4469353;32;34110;-82
2023/10/11 04:59:27;;;;;;;10.93;3.80;;;;;;;14.31;71.21;100303.62;4454194;32;31570;-82
2023/10/11 05:02:08;;;;;;;7.37;3.97;;;;;;;14.16;71.79;100298.66;4466091;32;33512;-81
2023/10/11 05:04:44;;;;;;;7.15;3.70;;;;;;;14.20;71.65;100302.94;4467144;32;33958;-81
2023/10/11 05:07:13;;;;;;;8.13;4.07;;;;;;;14.05;72.31;100301.47;4469811;32;33535;-83
2023/10/11 05:09:52;;;;;;;6.70;3.72;;;;;;;14.16;72.31;100306.50;4472204;32;33310;-83
2023/10/11 05:12:24;;;;;;;15.10;4.05;;;;;;;14.25;71.96;100316.78;4474026;32;34110;-82
2023/10/11 05:15:06;;;;;;;8.07;3.92;;;;;;;14.28;72.02;100316.75;4467680;32;34822;-83
2023/10/11 05:17:50;;;;;;;9.75;3.28;;;;;;;14.30;72.14;100323.66;4467418;32;33904;-81
2023/10/11 05:20:44;;;;;;;9.95;3.95;;;;;;;14.37;71.90;100320.91;4466474;32;32838;-81
2023/10/11 05:23:16;;;;;;;13.88;4.70;;;;;;;14.48;71.48;100322.44;4467891;32;33701;-82
2023/10/11 05:25:58;;;;;;;13.43;4.90;;;;;;;14.54;71.38;100324.09;4468073;32;34829;-82
2023/10/11 05:28:27;;;;;;;11.75;4.47;;;;;;;14.49;71.68;100331.13;4470403;32;33990;-82
2023/10/11 05:33:58;;;;;;;12.45;5.60;;;;;;;14.60;71.77;100344.03;4464101;32;33746;-81
2023/10/11 05:53:14;;;;;;;19.40;5.90;;;;;;;14.49;73.10;100325.91;4412692;32;33803;-82
2023/10/11 05:55:43;;;;;;;12.95;5.70;;;;;;;14.41;73.88;100323.44;4416864;32;34712;-81
2023/10/11 05:58:13;;;;;;;41.97;13.43;;;;;;;14.58;73.17;100319.69;4411102;32;34129;-81
2023/10/11 06:00:49;;;;;;;21.55;8.45;;;;;;;14.49;73.73;100333.72;4413407;32;33343;-81
2023/10/11 06:03:20;;;;;;;20.65;8.07;;;;;;;14.70;73.10;100340.34;4413891;32;33124;-82
2023/10/11 06:05:51;;;;;;;23.75;8.63;;;;;;;14.67;73.36;100340.41;4413771;32;33860;-81
2023/10/11 06:08:24;;;;;;;16.65;6.25;;;;;;;14.34;74.48;100347.06;4425593;32;34326;-81
2023/10/11 06:10:56;;;;;;;30.98;8.70;;;;;;;14.57;73.79;100342.34;4420982;32;32548;-82
2023/10/11 06:13:25;;;;;;;32.88;10.65;;;;;;;14.30;74.84;100348.87;4408431;32;31811;-83
2023/10/11 06:15:59;;;;;;;20.20;7.80;;;;;;;14.69;73.08;100360.38;4421539;32;33875;-82
2023/10/11 06:18:39;;;;;;;21.85;8.82;;;;;;;14.46;74.12;100352.06;4428857;32;34749;-83
2023/10/11 06:21:18;;;;;;;21.42;8.25;;;;;;;14.38;74.89;100352.22;4471274;32;33996;-81
2023/10/11 06:23:48;;;;;;;16.17;7.90;;;;;;;14.74;73.44;100352.44;4477568;32;33550;-81
2023/10/11 06:26:52;;;;;;;14.45;6.03;;;;;;;14.54;74.66;100341.50;4475010;32;34497;-82
2023/10/11 06:29:22;;;;;;;36.25;10.77;;;;;;;14.59;74.83;100344.88;4470004;32;32652;-81
2023/10/11 06:31:53;;;;;;;33.60;9.38;;;;;;;14.48;75.71;100351.16;4469040;32;34222;-83
2023/10/11 06:34:32;;;;;;;21.65;7.30;;;;;;;14.56;75.37;100347.56;4464451;32;32427;-82
2023/10/11 06:37:01;;;;;;;17.45;6.80;;;;;;;14.99;73.37;100344.97;4472482;32;34757;-81
2023/10/11 06:42:23;;;;;;;14.38;6.70;;;;;;;14.47;75.62;100346.84;4452474;32;33805;-83
2023/10/11 06:44:52;;;;;;;20.25;6.22;;;;;;;14.71;74.87;100352.47;4478206;32;33560;-81
2023/10/11 06:47:22;;;;;;;23.30;8.98;;;;;;;14.81;74.69;100361.88;4480779;32;33943;-82
2023/10/11 06:49:56;;;;;;;26.00;8.48;;;;;;;14.64;76.28;100356.09;4479462;32;34497;-81
2023/10/11 06:52:30;;;;;;;23.92;9.05;;;;;;;14.56;76.38;100355.41;4478482;32;33611;-81
2023/10/11 06:57:51;;;;;;;27.45;6.75;;;;;;;14.70;76.96;100356.00;4466619;32;34040;-83
2023/10/11 07:00:25;;;;;;;38.15;10.05;;;;;;;14.99;76.03;100352.81;4476923;32;34882;-82
2023/10/11 07:03:06;;;;;;;30.00;9.25;;;;;;;15.05;75.58;100359.63;4478111;32;33509;-82
2023/10/11 07:05:45;;;;;;;23.73;7.00;;;;;;;15.17;75.34;100359.37;4469586;32;33467;-82
2023/10/11 07:08:19;;;;;;;22.08;8.40;;;;;;;15.23;75.24;100361.03;4473293;32;33656;-83
2023/10/11 07:11:00;;;;;;;14.48;7.40;;;;;;;15.16;75.89;100362.91;4469314;32;33670;-82
2023/10/11 07:13:49;;;;;;;24.35;9.95;;;;;;;15.26;76.30;100355.72;4470092;32;34760;-82
2023/10/11 07:16:19;;;;;;;43.83;12.65;;;;;;;15.29;75.97;100358.25;4472009;32;33622;-84
2023/10/11 07:18:54;;;;;;;26.05;7.78;;;;;;;15.34;75.98;100365.13;4473258;32;33756;-83
2023/10/11 07:21:48;;;;;;;26.05;7.80;;;;;;;15.55;75.48;100368.12;4478872;32;33715;-82
2023/10/11 07:24:33;;;;;;;18.48;7.12;;;;;;;15.79;74.79;100361.50;4479117;32;34729;-82
2023/10/11 07:27:08;;;;;;;24.63;7.78;;;;;;;15.79;74.68;100367.59;4476572;32;82057;-81
2023/10/11 07:29:39;;;;;;;24.48;7.72;;;;;;;15.72;75.30;100359.94;4479441;32;34530;-83
2023/10/11 07:32:09;;;;;;;25.77;10.98;;;;;;;15.93;74.71;100364.66;4475001;32;33653;-84
2023/10/11 07:34:41;;;;;;;33.55;11.50;;;;;;;16.28;72.06;100367.28;4467969;32;33382;-82
2023/10/11 07:37:12;;;;;;;23.58;7.85;;;;;;;15.93;73.91;100362.03;4463608;32;34150;-82
2023/10/11 07:39:44;;;;;;;26.42;8.25;;;;;;;16.21;73.00;100372.69;4461801;32;33016;-82
2023/10/11 07:42:18;;;;;;;15.55;6.25;;;;;;;16.29;73.02;100371.63;4461737;32;34910;-82
2023/10/11 07:44:50;;;;;;;26.20;6.00;;;;;;;16.32;72.53;100369.78;4461537;32;35124;-83
2023/10/11 07:47:25;;;;;;;22.15;8.93;;;;;;;15.96;73.81;100363.72;4467129;32;33304;-81
2023/10/11 07:49:56;;;;;;;19.25;8.15;;;;;;;15.72;74.76;100363.41;4467680;32;34189;-83
2023/10/11 07:52:26;;;;;;;16.33;6.78;;;;;;;15.68;74.57;100371.31;4464640;32;33834;-82
2023/10/11 07:54:55;;;;;;;17.48;7.65;;;;;;;16.07;73.70;100366.94;4463881;32;34319;-81
2023/10/11 07:57:25;;;;;;;20.98;7.53;;;;;;;16.60;70.72;100375.16;4463243;32;33223;-82
2023/10/11 07:59:54;;;;;;;19.12;8.13;;;;;;;16.26;72.71;100366.47;4466114;32;34015;-82
2023/10/11 08:02:29;;;;;;;19.23;7.43;;;;;;;16.46;72.30;100366.81;4475342;32;34599;-83
2023/10/11 08:05:01;;;;;;;17.77;6.35;;;;;;;16.62;72.57;100359.37;4469432;32;33852;-82
2023/10/11 08:07:31;;;;;;;19.67;6.53;;;;;;;16.70;73.13;100367.06;4471179;32;33368;-82
2023/10/11 08:10:28;;;;;;;22.17;6.82;;;;;;;16.14;75.29;100371.12;4472287;32;32892;-84
2023/10/11 08:12:53;;;;;;;23.05;9.00;;;;;;;16.61;72.64;100369.00;4467417;32;34109;-83
2023/10/11 08:15:22;;;;;;;21.42;8.48;;;;;;;16.35;73.37;100374.06;4463464;32;34659;-81
2023/10/11 08:17:51;;;;;;;22.00;8.93;;;;;;;16.52;73.31;100379.72;4468966;32;34063;-82
2023/10/11 08:20:24;;;;;;;15.35;8.13;;;;;;;16.71;72.26;100372.22;4462717;32;34782;-82
2023/10/11 08:22:55;;;;;;;21.62;9.00;;;;;;;16.90;71.61;100370.00;4463328;32;33854;-82
2023/10/11 08:25:29;;;;;;;17.33;7.15;;;;;;;16.53;72.61;100373.59;4463263;32;35224;-83
2023/10/11 08:28:12;;;;;;;16.95;6.75;;;;;;;16.74;72.00;100373.91;4462914;32;33169;-82
2023/10/11 08:30:45;;;;;;;12.52;6.97;;;;;;;16.74;72.21;100369.53;4461631;32;34658;-82
2023/10/11 08:33:15;;;;;;;17.92;6.25;;;;;;;17.22;70.85;100365.56;4466769;32;33578;-82
2023/10/11 08:35:48;;;;;;;17.58;7.03;;;;;;;17.12;71.93;100369.37;4459657;32;32325;-82
2023/10/11 08:38:19;;;;;;;18.17;7.43;;;;;;;17.04;72.19;100364.38;4460597;32;33684;-81
2023/10/11 08:40:50;;;;;;;16.95;7.72;;;;;;;17.25;71.15;100361.12;4460176;32;33241;-83
2023/10/11 08:43:19;;;;;;;21.55;9.27;;;;;;;17.37;70.69;100364.25;4467739;32;33979;-82
2023/10/11 08:45:59;;;;;;;21.52;10.07;;;;;;;17.10;71.45;100358.94;4461845;32;33746;-83
2023/10/11 08:48:29;;;;;;;24.50;9.73;;;;;;;17.23;71.08;100357.69;4461001;32;33921;-82
2023/10/11 08:50:58;;;;;;;26.33;10.98;;;;;;;16.87;72.24;100359.59;4461207;32;33576;-82
2023/10/11 08:53:31;;;;;;;19.05;10.00;;;;;;;17.17;71.27;100354.38;4460227;32;34506;-82
2023/10/11 08:56:00;;;;;;;22.17;8.20;;;;;;;17.42;70.29;100359.72;4457981;32;34527;-83
2023/10/11 08:58:29;;;;;;;17.40;9.40;;;;;;;17.49;70.01;100363.88;4463271;32;33417;-83
2023/10/11 09:00:59;;;;;;;18.70;9.77;;;;;;;17.35;70.70;100353.81;4461031;32;33561;-83
2023/10/11 09:03:31;;;;;;;26.67;11.18;;;;;;;17.23;71.19;100356.81;4458291;32;33703;-83
2023/10/11 09:06:01;;;;;;;24.20;10.63;;;;;;;17.30;70.41;100362.72;4458492;32;33411;-83
2023/10/11 09:08:35;;;;;;;22.48;10.07;;;;;;;17.33;70.20;100360.88;4458149;32;33756;-83
2023/10/11 09:11:28;;;;;;;30.17;11.25;;;;;;;17.38;69.97;100364.22;4464341;32;33313;-82
2023/10/11 09:14:15;;;;;;;19.45;9.52;;;;;;;17.46;70.44;100354.34;4466087;32;33908;-82
2023/10/11 09:16:45;;;;;;;16.10;7.28;;;;;;;17.77;69.75;100363.03;4461695;32;34835;-84
2023/10/11 09:19:19;;;;;;;17.02;8.13;;;;;;;17.83;69.69;100365.47;4462286;32;33335;-82
2023/10/11 09:22:02;;;;;;;15.70;7.65;;;;;;;17.95;68.05;100370.31;4459627;32;33953;-83
2023/10/11 09:24:39;;;;;;;19.92;8.38;;;;;;;17.89;68.36;100355.63;4459890;32;33601;-82
2023/10/11 09:27:18;;;;;;;15.40;8.30;;;;;;;17.86;69.33;100358.38;4459721;32;33312;-81
2023/10/11 09:29:49;;;;;;;17.23;7.97;;;;;;;18.15;68.00;100361.78;4459939;32;32875;-81
2023/10/11 09:32:19;;;;;;;14.60;7.78;;;;;;;18.04;68.70;100363.91;4453533;32;34134;-82
2023/10/11 09:34:51;;;;;;;14.38;6.25;;;;;;;18.51;66.67;100364.94;4459173;32;34235;-83
2023/10/11 09:37:20;;;;;;;;;;;;;;;18.42;67.64;100367.88;4460159;32;34008;-82
2023/10/11 09:39:51;;;;;;;21.33;7.75;;;;;;;18.51;66.89;100371.97;4459125;32;33049;-84
2023/10/11 09:42:22;;;;;;;19.87;9.13;;;;;;;18.50;67.38;100365.81;4459499;32;34238;-82
2023/10/11 09:44:57;;;;;;;18.15;7.40;;;;;;;18.42;67.35;100365.25;4465373;32;33736;-81
2023/10/11 09:47:31;;;;;;;20.55;9.20;;;;;;;18.59;66.67;100364.66;4466617;32;34335;-83
2023/10/11 09:50:01;;;;;;;14.52;6.85;;;;;;;18.64;67.06;100362.72;4461629;32;33421;-83
2023/10/11 09:52:30;;;;;;;17.45;7.47;;;;;;;18.86;65.62;100369.84;4460242;32;34713;-82
2023/10/11 09:55:03;;;;;;;12.07;6.57;;;;;;;18.63;66.38;100361.00;4462144;32;33962;-83
2023/10/11 09:57:41;;;;;;;12.05;6.68;;;;;;;18.69;66.88;100362.56;4463445;32;32731;-83
2023/10/11 10:00:16;;;;;;;14.45;6.60;;;;;;;19.22;64.83;100362.37;4467567;32;34711;-82
2023/10/11 10:02:51;;;;;;;13.98;7.30;;;;;;;18.97;65.48;100360.66;4464120;32;33847;-82
2023/10/11 10:05:22;;;;;;;20.58;9.10;;;;;;;18.95;64.71;100361.63;4461023;32;34248;-82
2023/10/11 10:07:52;;;;;;;18.75;6.00;;;;;;;18.89;65.69;100367.09;4462768;32;33670;-83
2023/10/11 10:10:25;;;;;;;13.52;5.55;;;;;;;18.89;65.99;100359.22;4461518;32;33364;-82
2023/10/11 10:12:59;;;;;;;10.43;4.82;;;;;;;18.91;66.10;100354.78;4464105;32;33740;-82
2023/10/11 10:15:32;;;;;;;12.48;6.28;;;;;;;19.29;64.77;100345.44;4466260;32;34599;-82
2023/10/11 10:18:28;;;;;;;14.43;7.20;;;;;;;19.47;63.87;100343.00;4461113;32;33870;-82
2023/10/11 10:21:02;;;;;;;10.55;4.28;;;;;;;19.79;63.52;100336.47;4438637;32;33529;-82
2023/10/11 10:23:32;;;;;;;11.35;4.72;;;;;;;19.81;63.15;100332.88;4445498;32;33722;-83
2023/10/11 10:26:39;;;;;;;13.77;5.53;;;;;;;19.82;62.95;100325.81;4445800;32;32889;-82
2023/10/11 10:29:11;;;;;;;8.30;3.87;;;;;;;19.89;62.65;100329.06;4445841;32;33674;-81
2023/10/11 10:32:06;;;;;;;12.25;4.65;;;;;;;19.65;62.98;100325.63;4450313;32;33132;-82
2023/10/11 10:34:41;;;;;;;7.55;3.97;;;;;;;19.79;62.71;100323.31;4456498;32;32634;-83
2023/10/11 10:37:43;;;;;;;8.05;3.45;;;;;;;20.09;62.01;100320.31;4460166;32;33917;-83
2023/10/11 10:40:18;;;;;;;11.90;3.80;;;;;;;20.14;61.90;100311.28;4445036;32;33963;-82
2023/10/11 10:43:19;;;;;;;9.68;5.47;;;;;;;20.12;62.63;100322.81;4459471;32;33697;-82
2023/10/11 10:45:48;;;;;;;;;;;;;;;20.10;62.02;100306.22;4450246;32;33385;-82
2023/10/11 10:48:18;;;;;;;6.07;3.10;;;;;;;20.48;61.28;100306.34;4445451;32;34078;-82
2023/10/11 10:50:48;;;;;;;9.10;2.70;;;;;;;20.50;61.33;100305.34;4446508;32;32816;-82
2023/10/11 10:53:17;;;;;;;6.47;3.47;;;;;;;20.52;61.56;100295.59;4451525;32;32306;-81
2023/10/11 10:55:46;;;;;;;5.80;2.85;;;;;;;20.54;61.86;100299.00;4449369;32;33517;-82
2023/10/11 10:58:20;;;;;;;5.72;2.40;;;;;;;20.88;60.76;100294.87;4444347;32;34527;-83
2023/10/11 11:00:52;;;;;;;6.22;2.60;;;;;;;20.66;61.00;100295.84;4446569;32;34461;-82
2023/10/11 11:03:22;;;;;;;7.85;2.58;;;;;;;20.87;60.48;100294.00;4445417;32;32941;-81
2023/10/11 11:05:55;;;;;;;8.23;3.65;;;;;;;21.03;59.67;100286.25;4445854;32;34104;-82
2023/10/11 11:08:27;;;;;;;4.57;2.03;;;;;;;20.95;59.82;100276.97;4451147;32;34823;-82
2023/10/11 11:11:18;;;;;;;5.57;2.05;;;;;;;21.20;59.91;100274.03;4445587;32;33460;-82
2023/10/11 11:13:48;;;;;;;5.15;2.55;;;;;;;21.23;59.48;100280.00;4445606;32;32972;-82
2023/10/11 11:16:19;;;;;;;5.03;2.20;;;;;;;21.36;58.57;100276.78;4444582;32;33887;-83
2023/10/11 11:18:47;;;;;;;4.93;2.70;;;;;;;21.57;58.08;100270.47;4445125;32;33540;-83
2023/10/11 11:21:23;;;;;;;4.57;2.08;;;;;;;21.60;57.93;100264.19;4459076;32;33880;-82
2023/10/11 11:23:52;;;;;;;3.72;2.05;;;;;;;21.55;57.68;100269.69;4465922;32;32925;-82
2023/10/11 11:26:27;;;;;;;8.40;2.58;;;;;;;21.85;57.60;100263.84;4459913;32;34305;-83
2023/10/11 11:29:09;;;;;;;5.90;2.60;;;;;;;22.01;56.87;100256.84;4460819;32;33989;-83
2023/10/11 11:31:53;;;;;;;3.78;2.03;;;;;;;22.03;56.85;100254.94;4462195;32;36459;-83
2023/10/11 11:34:34;;;;;;;4.32;2.08;;;;;;;22.10;56.70;100256.34;4460062;32;33992;-82
2023/10/11 11:37:08;;;;;;;5.55;2.40;;;;;;;22.11;55.89;100246.66;4460216;32;34715;-82
2023/10/11 11:39:52;;;;;;;4.40;1.75;;;;;;;22.14;55.68;100239.41;4460613;32;34506;-83
2023/10/11 11:42:24;;;;;;;3.17;1.87;;;;;;;22.25;55.31;100233.56;4465971;32;33742;-83
2023/10/11 11:44:55;;;;;;;3.75;1.45;;;;;;;22.45;54.32;100234.31;4462000;32;33148;-82
2023/10/11 11:47:29;;;;;;;4.47;2.08;;;;;;;22.40;54.60;100226.63;4460388;32;33763;-81
2023/10/11 11:50:04;;;;;;;3.87;1.50;;;;;;;22.58;54.50;100224.78;4460207;32;34607;-82
2023/10/11 11:52:32;;;;;;;2.80;1.25;;;;;;;22.63;54.46;100222.72;4460582;32;34366;-82
2023/10/11 11:55:02;;;;;;;3.50;1.60;;;;;;;22.72;54.01;100214.28;4461383;32;32902;-82
2023/10/11 11:57:30;;;;;;;5.10;2.00;;;;;;;22.47;54.95;100216.56;4466610;32;33803;-82
2023/10/11 12:00:05;;;;;;;7.25;3.03;;;;;;;22.77;54.42;100219.34;4461065;32;34532;-82
2023/10/11 12:02:36;;;;;;;4.90;2.53;;;;;;;22.89;54.45;100213.34;4460920;32;33869;-83
2023/10/11 12:05:04;;;;;;;4.80;1.98;;;;;;;22.85;53.79;100214.47;4461421;32;32652;-81
2023/10/11 12:07:33;;;;;;;3.75;1.42;;;;;;;22.98;53.53;100204.94;4460623;32;32784;-83
2023/10/11 12:10:10;;;;;;;3.87;1.48;;;;;;;23.18;53.92;100213.53;4467551;32;33949;-83
2023/10/11 12:12:39;;;;;;;5.68;1.70;;;;;;;23.18;52.88;100209.09;4465123;32;33502;-82
2023/10/11 12:15:16;;;;;;;5.18;1.67;;;;;;;23.21;53.02;100208.06;4460984;32;33365;-83
2023/10/11 12:17:46;;;;;;;4.68;1.52;;;;;;;23.24;52.53;100197.28;4460991;32;33942;-83
2023/10/11 12:20:16;;;;;;;2.65;1.10;;;;;;;23.28;53.24;100201.47;4459862;32;33530;-82
2023/10/11 12:22:45;;;;;;;2.87;1.50;;;;;;;23.34;51.80;100203.78;4460173;32;33676;-82